Time;durP1;ratioP1;P1;durP2;ratioP2;P2;SDS_P1;SDS_P2;PMS_P1;PMS_P2;Temp;Humidity;BMP_temperature;BMP_pressure;BME280_temperature;BME280_humidity;BME280_pressure;Samples;Min_cycle;Max_cycle;Signal;HPM_P1;HPM_P2
2023/09/11 00:02:14;;;;;;;7.80;4.30;;;;;;;16.41;71.90;100144.02;108261;1253;73574;-62
2023/09/11 00:04:42;;;;;;;6.10;4.50;;;;;;;16.41;72.34;100142.44;108352;1253;68609;-63
2023/09/11 00:07:10;;;;;;;5.20;4.60;;;;;;;16.38;72.87;100143.52;108430;1253;73332;-63
2023/09/11 00:09:37;;;;;;;5.80;4.60;;;;;;;16.37;73.21;100141.95;108400;1254;60269;-62
2023/09/11 00:12:05;;;;;;;6.60;4.80;;;;;;;16.40;73.28;100139.84;108642;1256;59452;-62
2023/09/11 00:14:33;;;;;;;7.50;4.70;;;;;;;16.40;73.61;100142.48;108571;1251;73680;-62
2023/09/11 00:17:01;;;;;;;6.70;4.20;;;;;;;16.39;74.16;100142.20;108672;1251;70327;-64
2023/09/11 00:19:28;;;;;;;8.20;5.10;;;;;;;16.40;74.31;100135.41;108646;1251;72410;-63
2023/09/11 00:21:56;;;;;;;6.30;5.00;;;;;;;16.41;74.20;100136.98;108597;1251;59707;-63
2023/09/11 00:24:24;;;;;;;6.20;4.50;;;;;;;16.39;74.46;100142.00;108661;1254;59733;-63
2023/09/11 00:26:51;;;;;;;5.80;5.10;;;;;;;16.38;74.38;100139.42;108639;1251;74422;-63
2023/09/11 00:29:19;;;;;;;6.50;4.60;;;;;;;16.37;74.68;100138.95;108465;1251;71414;-62
2023/09/11 00:31:47;;;;;;;10.70;5.20;;;;;;;16.36;74.62;100136.86;108619;1251;72533;-63
2023/09/11 00:34:17;;;;;;;8.50;4.80;;;;;;;16.34;74.17;100135.90;108663;1251;59800;-63
2023/09/11 00:36:45;;;;;;;7.60;5.60;;;;;;;16.30;74.33;100134.77;108665;1251;59700;-63
2023/09/11 00:39:12;;;;;;;6.10;4.80;;;;;;;16.28;74.27;100132.76;108493;1251;72661;-63
2023/09/11 00:41:42;;;;;;;5.90;4.40;;;;;;;16.26;74.48;100130.42;108489;1251;69193;-63
2023/09/11 00:44:10;;;;;;;6.00;4.70;;;;;;;16.23;74.67;100125.80;108671;1251;71374;-62
2023/09/11 00:46:38;;;;;;;;;;;;;;;16.20;74.97;100125.28;108629;1251;59790;-61
2023/09/11 00:49:06;;;;;;;;;;;;;;;16.14;75.76;100123.11;108584;1251;59409;-63
2023/09/11 00:51:36;;;;;;;5.90;4.70;;;;;;;16.09;76.32;100124.98;108615;1251;73678;-63
2023/09/11 00:54:04;;;;;;;;;;;;;;;16.03;75.99;100120.75;108515;1251;70121;-63
2023/09/11 00:56:31;;;;;;;5.70;4.80;;;;;;;16.00;76.79;100119.55;108399;1252;72912;-63
2023/09/11 00:58:59;;;;;;;5.50;4.80;;;;;;;15.94;77.09;100120.05;108497;1252;59769;-63
2023/09/11 01:01:27;;;;;;;7.30;5.00;;;;;;;15.89;77.63;100120.69;108422;1254;59801;-63
2023/09/11 01:03:54;;;;;;;;;;;;;;;15.85;78.43;100120.52;108601;1251;73725;-64
2023/09/11 01:06:22;;;;;;;7.80;5.40;;;;;;;15.81;79.68;100115.66;108646;1251;70022;-63
2023/09/11 01:08:54;;;;;;;8.80;4.90;;;;;;;15.78;79.68;100112.14;108400;1253;72851;-63
2023/09/11 01:11:23;;;;;;;6.40;5.00;;;;;;;15.79;80.13;100108.89;107812;1256;58751;-63
2023/09/11 01:13:53;;;;;;;6.10;5.10;;;;;;;15.79;80.78;100107.63;108281;1253;60752;-62
2023/09/11 01:16:23;;;;;;;7.80;5.50;;;;;;;15.79;81.66;100098.96;108226;1253;73749;-62
2023/09/11 01:18:58;;;;;;;6.80;5.60;;;;;;;15.80;82.76;100101.08;108296;1253;68266;-63
2023/09/11 01:21:37;;;;;;;6.80;5.70;;;;;;;15.80;84.05;100097.86;108069;1253;72337;-63
2023/09/11 01:27:53;;;;;;;8.50;5.70;;;;;;;15.36;93.14;100095.09;100687;1295;602401;-63
2023/09/11 01:30:21;;;;;;;8.20;5.40;;;;;;;15.77;89.29;100092.41;103317;1271;61828;-62
2023/09/11 01:32:55;;;;;;;8.50;4.90;;;;;;;15.80;88.94;100090.10;103222;1272;60699;-62
2023/09/11 01:35:23;;;;;;;8.30;6.20;;;;;;;15.77;89.14;100090.98;103343;1269;71189;-62
2023/09/11 01:37:51;;;;;;;;;;;;;;;15.73;90.03;100092.73;103137;1272;69142;-62
2023/09/11 01:40:19;;;;;;;9.00;5.70;;;;;;;15.68;91.77;100089.15;102921;1288;334563;-62
2023/09/11 01:42:49;;;;;;;7.40;5.80;;;;;;;15.65;91.47;100090.56;103435;1274;61966;-62
2023/09/11 01:45:17;;;;;;;7.70;6.00;;;;;;;15.70;91.59;100090.63;103225;1273;60737;-62
2023/09/11 01:47:45;;;;;;;;;;;;;;;15.73;91.41;100088.36;103506;1265;72276;-62
2023/09/11 01:50:17;;;;;;;8.10;6.40;;;;;;;15.71;93.50;100088.96;103420;1271;69183;-63
2023/09/11 01:52:46;;;;;;;14.30;6.80;;;;;;;15.72;91.80;100086.09;103485;1271;73430;-63
2023/09/11 01:55:14;;;;;;;6.80;5.60;;;;;;;15.69;91.98;100086.64;103709;1271;61534;-63
2023/09/11 01:57:42;;;;;;;;;;;;;;;15.66;92.47;100084.30;103663;1269;59859;-63
2023/09/11 02:00:11;;;;;;;8.90;5.20;;;;;;;15.62;95.41;100085.05;103772;1269;72254;-63
2023/09/11 02:02:44;;;;;;;9.70;5.60;;;;;;;15.60;93.70;100080.61;105091;1269;69186;-64
2023/09/11 02:05:12;;;;;;;7.60;5.80;;;;;;;15.61;93.84;100080.36;103417;1277;72531;-64
2023/09/11 02:07:40;;;;;;;6.40;5.70;;;;;;;15.61;94.08;100079.13;103955;1266;60916;-65
2023/09/11 02:10:09;;;;;;;8.10;5.80;;;;;;;15.62;94.49;100076.60;103959;1263;60646;-63
2023/09/11 02:12:36;;;;;;;9.10;6.10;;;;;;;15.62;95.13;100076.77;103856;1261;73067;-63
2023/09/11 02:15:06;;;;;;;9.20;5.70;;;;;;;15.65;95.39;100075.20;103952;1264;69137;-63
2023/09/11 02:17:36;;;;;;;5.80;5.20;;;;;;;15.68;95.36;100074.66;103972;1260;72421;-63
2023/09/11 02:20:05;;;;;;;7.40;6.20;;;;;;;15.70;95.58;100071.55;103970;1278;61686;-63
2023/09/11 02:22:33;;;;;;;7.20;5.40;;;;;;;15.72;95.23;100070.35;103893;1260;60046;-63
2023/09/11 02:25:00;;;;;;;10.10;6.60;;;;;;;15.77;95.23;100070.63;103907;1281;72811;-64
2023/09/11 02:27:28;;;;;;;7.80;6.10;;;;;;;15.82;94.80;100069.85;103956;1262;68113;-63
2023/09/11 02:29:56;;;;;;;6.80;6.10;;;;;;;15.84;94.07;100070.41;104016;1262;72258;-64
2023/09/11 02:32:24;;;;;;;7.60;6.10;;;;;;;15.84;94.73;100071.09;103885;1263;61686;-65
2023/09/11 02:34:52;;;;;;;10.40;6.10;;;;;;;15.84;94.55;100071.46;103958;1262;59817;-64
2023/09/11 02:37:21;;;;;;;7.30;6.20;;;;;;;15.86;93.32;100072.63;104051;1270;72710;-64
2023/09/11 02:39:48;;;;;;;7.60;5.70;;;;;;;15.85;92.83;100074.24;103858;1265;69312;-64
2023/09/11 02:42:16;;;;;;;7.80;6.30;;;;;;;15.84;93.44;100076.41;103857;1281;72540;-64
2023/09/11 02:44:44;;;;;;;7.10;6.00;;;;;;;15.82;93.58;100073.52;103818;1272;60719;-63
2023/09/11 02:47:12;;;;;;;7.60;5.80;;;;;;;15.80;93.38;100074.04;103836;1258;59673;-62
2023/09/11 02:49:39;;;;;;;7.10;5.60;;;;;;;15.77;93.65;100080.20;103970;1263;73689;-63
2023/09/11 02:52:07;;;;;;;5.70;5.10;;;;;;;15.70;94.12;100081.42;103877;1273;69033;-63
2023/09/11 02:54:35;;;;;;;11.50;6.00;;;;;;;15.66;93.81;100083.44;103890;1281;72272;-62
2023/09/11 02:57:03;;;;;;;8.10;5.60;;;;;;;15.60;93.27;100083.73;103850;1274;60319;-64
2023/09/11 02:59:34;;;;;;;5.40;4.90;;;;;;;15.55;94.02;100081.91;103911;1259;60686;-59
2023/09/11 03:02:02;;;;;;;7.60;5.50;;;;;;;15.52;93.99;100084.23;103897;1265;72766;-60
2023/09/11 03:04:30;;;;;;;;;;;;;;;15.47;93.93;100084.12;104193;1262;69579;-60
2023/09/11 03:06:57;;;;;;;6.50;5.20;;;;;;;15.42;95.62;100084.92;103857;1265;72463;-60
2023/09/11 03:09:26;;;;;;;8.70;5.40;;;;;;;15.36;94.76;100087.92;104060;1273;60453;-59
2023/09/11 03:11:55;;;;;;;7.60;5.00;;;;;;;15.33;94.56;100084.55;107260;1257;60112;-61
2023/09/11 03:14:23;;;;;;;6.20;5.50;;;;;;;15.32;95.08;100081.63;104938;1263;72796;-61
2023/09/11 03:16:51;;;;;;;6.90;6.20;;;;;;;15.30;95.30;100078.34;103908;1272;69764;-60
2023/09/11 03:19:19;;;;;;;8.50;5.80;;;;;;;15.27;95.24;100077.46;104215;1264;72595;-59
2023/09/11 03:21:47;;;;;;;8.00;6.10;;;;;;;15.28;94.99;100078.50;103852;1265;62064;-60
2023/09/11 03:24:15;;;;;;;7.50;5.80;;;;;;;15.26;94.57;100076.33;104040;1273;60191;-60
2023/09/11 03:26:43;;;;;;;10.20;5.90;;;;;;;15.22;93.96;100078.45;104007;1265;72771;-59
2023/09/11 03:29:13;;;;;;;6.90;5.50;;;;;;;15.19;93.28;100074.22;103896;1263;69116;-60
2023/09/11 03:31:44;;;;;;;8.20;6.30;;;;;;;15.11;93.58;100074.13;103964;1264;72359;-60
2023/09/11 03:34:14;;;;;;;9.10;6.50;;;;;;;15.07;93.68;100077.32;103902;1257;62456;-60
2023/09/11 03:36:44;;;;;;;13.30;6.60;;;;;;;15.07;93.56;100076.98;104076;1260;59768;-60
2023/09/11 03:39:14;;;;;;;13.00;6.80;;;;;;;15.09;92.84;100077.23;103807;1263;72820;-59
2023/09/11 03:41:42;;;;;;;9.30;6.80;;;;;;;15.06;93.32;100073.14;103813;1277;69649;-59
2023/09/11 03:44:10;;;;;;;10.50;7.80;;;;;;;15.05;93.72;100074.63;103768;1264;72525;-60
2023/09/11 03:46:38;;;;;;;;;;;;;;;15.04;94.08;100071.71;103845;1263;61431;-60
2023/09/11 03:49:06;;;;;;;;;;;;;;;15.03;95.29;100074.02;103840;1264;59689;-60
2023/09/11 03:51:35;;;;;;;10.00;8.00;;;;;;;14.98;96.60;100075.33;103949;1266;72885;-60
2023/09/11 03:54:08;;;;;;;12.60;9.10;;;;;;;14.98;95.50;100073.77;103974;1281;70203;-59
2023/09/11 03:56:36;;;;;;;10.10;8.50;;;;;;;14.97;95.65;100074.90;103877;1279;72514;-60
2023/09/11 03:59:05;;;;;;;11.60;8.10;;;;;;;14.96;96.16;100074.93;103877;1272;61391;-59
2023/09/11 04:01:32;;;;;;;11.80;8.30;;;;;;;14.96;97.47;100074.92;103854;1264;60735;-59
2023/09/11 04:04:01;;;;;;;13.10;8.20;;;;;;;14.99;98.30;100077.78;105950;1260;73753;-60
2023/09/11 04:06:29;;;;;;;12.10;8.10;;;;;;;15.01;99.00;100078.16;103832;1263;69162;-66
2023/09/11 04:08:57;;;;;;;10.30;8.30;;;;;;;15.03;98.56;100077.57;103939;1264;73316;-63
2023/09/11 04:11:24;;;;;;;9.90;8.20;;;;;;;15.03;99.08;100076.84;103892;1263;61502;-62
2023/09/11 04:13:52;;;;;;;13.50;9.30;;;;;;;15.04;99.47;100078.19;103897;1262;60100;-64
2023/09/11 04:16:21;;;;;;;11.30;8.50;;;;;;;15.06;99.77;100075.45;103784;1263;72675;-63
2023/09/11 04:18:49;;;;;;;12.60;8.70;;;;;;;15.10;99.84;100079.81;103911;1258;69160;-64
2023/09/11 04:21:17;;;;;;;11.50;8.50;;;;;;;15.14;99.96;100077.81;103862;1265;71715;-63
2023/09/11 04:23:45;;;;;;;10.90;9.20;;;;;;;15.19;99.97;100077.92;103837;1263;61619;-64
2023/09/11 04:26:13;;;;;;;10.40;8.40;;;;;;;15.24;100.00;100078.02;103951;1265;59762;-63
2023/09/11 04:28:41;;;;;;;16.40;10.90;;;;;;;15.32;100.00;100074.90;103793;1261;72735;-64
2023/09/11 04:31:09;;;;;;;13.10;9.60;;;;;;;15.37;100.00;100073.73;103841;1281;70102;-65
2023/09/11 04:33:37;;;;;;;;;;;;;;;15.43;100.00;100074.48;103796;1264;72407;-63
2023/09/11 04:36:05;;;;;;;16.20;9.40;;;;;;;15.50;100.00;100069.65;103892;1277;61490;-64
2023/09/11 04:38:33;;;;;;;15.90;10.60;;;;;;;15.55;100.00;100071.52;103912;1260;59725;-65
2023/09/11 04:41:01;;;;;;;14.60;10.20;;;;;;;15.63;100.00;100066.12;103907;1264;73275;-63
2023/09/11 04:43:30;;;;;;;15.90;10.50;;;;;;;15.70;100.00;100066.26;103909;1279;68333;-63
2023/09/11 04:45:57;;;;;;;13.90;10.10;;;;;;;15.80;100.00;100064.11;103969;1264;71788;-64
2023/09/11 04:48:25;;;;;;;12.70;10.10;;;;;;;15.88;100.00;100064.31;104054;1263;61921;-63
2023/09/11 04:50:53;;;;;;;;;;;;;;;15.96;100.00;100059.30;104008;1261;59668;-64
2023/09/11 04:53:21;;;;;;;14.70;9.80;;;;;;;15.99;100.00;100060.68;104157;1268;72774;-61
2023/09/11 04:55:50;;;;;;;16.00;9.70;;;;;;;16.02;100.00;100060.88;104216;1263;69149;-61
2023/09/11 04:58:17;;;;;;;13.50;9.80;;;;;;;16.09;100.00;100061.02;104240;1257;72411;-61
2023/09/11 05:00:45;;;;;;;11.40;9.30;;;;;;;16.11;100.00;100060.88;104152;1258;60455;-62
2023/09/11 05:03:13;;;;;;;12.20;8.90;;;;;;;16.10;100.00;100061.31;105449;1256;60388;-63
2023/09/11 05:05:41;;;;;;;12.80;8.80;;;;;;;16.10;100.00;100060.20;104839;1263;71814;-64
2023/09/11 05:08:10;;;;;;;17.10;10.30;;;;;;;16.15;100.00;100058.90;104080;1279;69256;-60
2023/09/11 05:10:42;;;;;;;17.00;11.80;;;;;;;16.22;99.90;100058.27;103814;1272;72209;-60
2023/09/11 05:13:10;;;;;;;17.00;10.90;;;;;;;16.28;99.88;100056.13;103929;1264;61894;-60
2023/09/11 05:15:38;;;;;;;13.30;9.30;;;;;;;16.30;100.00;100056.54;103928;1259;59742;-61
2023/09/11 05:18:13;;;;;;;14.40;10.00;;;;;;;16.36;100.00;100052.85;103804;1264;72944;-62
2023/09/11 05:20:41;;;;;;;17.10;9.90;;;;;;;16.42;100.00;100047.54;103907;1279;69528;-63
2023/09/11 05:23:09;;;;;;;15.60;10.20;;;;;;;16.53;100.00;100045.81;103907;1275;72461;-61
2023/09/11 05:25:36;;;;;;;16.20;9.00;;;;;;;16.58;100.00;100046.73;103883;1264;61148;-62
2023/09/11 05:28:05;;;;;;;11.90;9.10;;;;;;;16.65;100.00;100051.09;103895;1271;59875;-62
2023/09/11 05:30:33;;;;;;;12.00;8.20;;;;;;;16.72;99.98;100050.98;103947;1280;72872;-62
2023/09/11 05:40:59;;;;;;;20.40;14.30;;;;;;;16.97;100.00;100049.46;101441;1295;602039;-60
2023/09/11 05:43:27;;;;;;;;;;;;;;;17.00;99.09;100050.02;103634;1266;59360;-60
2023/09/11 05:45:56;;;;;;;20.70;15.50;;;;;;;17.03;98.10;100054.41;103734;1269;59862;-59
2023/09/11 05:48:24;;;;;;;20.00;15.50;;;;;;;17.04;98.18;100054.20;103518;1272;72763;-60
2023/09/11 05:50:56;;;;;;;19.00;13.40;;;;;;;17.07;97.14;100053.48;103622;1270;68269;-61
2023/09/11 05:53:24;;;;;;;16.80;12.50;;;;;;;17.15;97.08;100051.36;103802;1269;72841;-62
2023/09/11 05:55:52;;;;;;;17.30;12.50;;;;;;;17.22;96.44;100052.54;103810;1266;61906;-60
2023/09/11 05:58:21;;;;;;;16.80;11.60;;;;;;;17.30;96.47;100049.19;103916;1268;60673;-60
2023/09/11 06:00:51;;;;;;;17.70;11.60;;;;;;;17.38;96.06;100051.16;104120;1272;71715;-61
2023/09/11 06:03:19;;;;;;;14.30;10.80;;;;;;;17.44;95.79;100051.41;104003;1268;70134;-60
2023/09/11 06:05:47;;;;;;;14.00;10.70;;;;;;;17.53;95.07;100048.38;105290;1263;71356;-60
2023/09/11 06:08:15;;;;;;;15.80;10.10;;;;;;;17.63;95.51;100049.17;103785;1268;61484;-60
2023/09/11 06:10:45;;;;;;;12.80;8.60;;;;;;;17.73;94.57;100047.62;103858;1269;59756;-59
2023/09/11 06:13:16;;;;;;;16.40;10.40;;;;;;;17.79;95.53;100049.84;104011;1269;72772;-60
2023/09/11 06:15:43;;;;;;;14.10;7.40;;;;;;;17.88;95.31;100050.39;103891;1285;69065;-59
2023/09/11 06:18:13;;;;;;;10.40;7.30;;;;;;;17.97;95.09;100048.73;104027;1266;71491;-60
2023/09/11 06:20:41;;;;;;;8.60;7.30;;;;;;;18.08;94.21;100051.34;104156;1268;61482;-60
2023/09/11 06:23:11;;;;;;;;;;;;;;;18.16;94.31;100052.93;103928;1266;60171;-60
2023/09/11 06:25:39;;;;;;;11.70;7.20;;;;;;;18.29;94.99;100051.69;106001;1266;72822;-62
2023/09/11 06:28:07;;;;;;;13.70;10.00;;;;;;;18.45;94.20;100053.44;103937;1268;69168;-60
2023/09/11 06:30:34;;;;;;;14.40;8.90;;;;;;;18.56;94.62;100058.89;103826;1286;72374;-59
2023/09/11 06:33:02;;;;;;;;;;;;;;;18.67;94.24;100056.38;104074;1264;60766;-59
2023/09/11 06:35:33;;;;;;;12.00;8.00;;;;;;;18.76;91.88;100058.38;103950;1271;59705;-59
2023/09/11 06:38:04;;;;;;;9.70;7.40;;;;;;;18.85;90.98;100061.02;104073;1267;72743;-59
2023/09/11 06:40:31;;;;;;;;;;;;;;;18.93;89.26;100058.98;104246;1264;68298;-61
2023/09/11 06:42:59;;;;;;;8.10;6.50;;;;;;;19.04;89.63;100058.04;104182;1266;72333;-60
2023/09/11 06:45:33;;;;;;;7.70;6.30;;;;;;;19.16;89.72;100055.96;104116;1271;61923;-59
2023/09/11 06:48:04;;;;;;;8.60;5.30;;;;;;;19.27;87.32;100059.05;104379;1263;59806;-60
2023/09/11 06:50:33;;;;;;;7.60;4.90;;;;;;;19.38;85.78;100058.26;103883;1269;73746;-59
2023/09/11 06:53:04;;;;;;;9.00;5.40;;;;;;;19.52;84.36;100054.76;104221;1264;69309;-60
2023/09/11 06:55:31;;;;;;;8.20;5.10;;;;;;;19.61;82.69;100053.17;104449;1264;72459;-59
2023/09/11 06:58:00;;;;;;;6.90;5.20;;;;;;;19.72;80.93;100055.05;104458;1267;60270;-59
2023/09/11 07:00:28;;;;;;;9.60;4.70;;;;;;;19.85;79.85;100057.30;104612;1260;59743;-58
2023/09/11 07:02:56;;;;;;;7.80;4.30;;;;;;;19.99;75.88;100055.36;104172;1261;73275;-58
2023/09/11 07:05:25;;;;;;;5.40;3.60;;;;;;;20.18;71.99;100050.40;106680;1256;70031;-59
2023/09/11 07:07:53;;;;;;;3.50;3.00;;;;;;;20.28;69.98;100046.94;104668;1257;71208;-59
2023/09/11 07:10:21;;;;;;;3.20;2.70;;;;;;;20.41;69.05;100042.38;104568;1257;59786;-60
2023/09/11 07:13:07;;;;;;;5.10;2.60;;;;;;;20.60;65.97;100038.30;104169;1262;59733;-59
2023/09/11 07:15:35;;;;;;;7.60;3.20;;;;;;;20.73;64.46;100039.73;104462;1261;71951;-60
2023/09/11 07:18:05;;;;;;;4.20;2.80;;;;;;;20.81;64.54;100039.48;104684;1256;69135;-59
2023/09/11 07:20:36;;;;;;;4.30;2.80;;;;;;;20.91;63.52;100036.49;104492;1259;71593;-58
2023/09/11 07:23:07;;;;;;;;;;;;;;;20.98;61.84;100037.55;104360;1258;59913;-59
2023/09/11 07:25:35;;;;;;;3.40;2.70;;;;;;;21.10;60.75;100041.65;104501;1256;59838;-59
2023/09/11 07:28:03;;;;;;;7.40;2.70;;;;;;;21.20;58.42;100041.55;104320;1256;73728;-60
2023/09/11 07:30:33;;;;;;;3.10;2.70;;;;;;;21.31;58.13;100037.80;104371;1266;69329;-59
2023/09/11 07:33:01;;;;;;;7.40;2.70;;;;;;;21.42;57.09;100035.67;104521;1260;72324;-59
2023/09/11 07:35:29;;;;;;;;;;;;;;;21.51;57.55;100033.31;104386;1257;59849;-60
2023/09/11 07:37:56;;;;;;;;;;;;;;;21.60;54.58;100033.48;104439;1261;60344;-59
2023/09/11 07:40:24;;;;;;;9.20;2.40;;;;;;;21.71;54.52;100034.36;104325;1259;72732;-59
2023/09/11 07:42:54;;;;;;;2.50;2.30;;;;;;;21.79;55.64;100032.40;104573;1255;69015;-61
2023/09/11 07:45:22;;;;;;;4.70;2.40;;;;;;;21.89;53.53;100030.23;104685;1260;73332;-59
2023/09/11 07:47:50;;;;;;;3.00;2.50;;;;;;;21.98;53.66;100026.55;104387;1260;60229;-60
2023/09/11 07:50:18;;;;;;;2.30;2.10;;;;;;;22.06;54.37;100021.30;104330;1257;59799;-60
2023/09/11 07:52:46;;;;;;;3.50;2.50;;;;;;;22.18;53.97;100020.91;104390;1259;72955;-62
2023/09/11 07:55:14;;;;;;;5.90;2.20;;;;;;;22.35;53.49;100021.48;104285;1260;69191;-59
2023/09/11 07:57:44;;;;;;;2.40;2.00;;;;;;;22.49;52.26;100017.08;104086;1268;73374;-60
2023/09/11 08:00:14;;;;;;;3.80;2.30;;;;;;;22.60;51.40;100013.63;104388;1257;59809;-63
2023/09/11 08:02:41;;;;;;;6.50;1.70;;;;;;;22.67;50.97;100011.22;104130;1261;59804;-59
2023/09/11 08:05:09;;;;;;;1.70;1.60;;;;;;;22.80;51.61;100012.08;104383;1259;72938;-60
2023/09/11 08:07:37;;;;;;;;;;;;;;;22.88;51.07;100017.23;105392;1261;69909;-63
2023/09/11 08:10:05;;;;;;;2.10;1.40;;;;;;;22.95;50.56;100012.73;104273;1260;72336;-59
2023/09/11 08:12:33;;;;;;;3.30;1.40;;;;;;;23.01;50.48;100011.11;104001;1262;60780;-59
2023/09/11 08:15:04;;;;;;;1.80;1.40;;;;;;;23.08;50.20;100008.92;104189;1278;60115;-61
2023/09/11 08:17:32;;;;;;;1.90;1.70;;;;;;;23.15;50.46;100007.88;104248;1278;72807;-60
2023/09/11 08:19:59;;;;;;;;;;;;;;;23.30;50.54;100005.30;104061;1263;70240;-59
2023/09/11 08:22:27;;;;;;;3.50;1.30;;;;;;;23.43;49.85;100010.01;104196;1262;72383;-60
2023/09/11 08:24:56;;;;;;;;;;;;;;;23.49;48.28;100004.96;104186;1257;59765;-60
2023/09/11 08:27:25;;;;;;;4.00;1.80;;;;;;;23.53;47.96;100001.09;104781;1255;60408;-61
2023/09/11 08:29:55;;;;;;;2.70;1.40;;;;;;;23.56;47.81;100006.31;105713;1257;73019;-60
2023/09/11 08:32:23;;;;;;;1.90;1.50;;;;;;;23.61;48.69;100006.09;104345;1257;70244;-60
2023/09/11 08:34:51;;;;;;;;;;;;;;;23.63;48.68;100001.07;104510;1258;72861;-59
2023/09/11 08:37:19;;;;;;;3.60;1.40;;;;;;;23.77;48.36;100004.84;104200;1260;60212;-60
2023/09/11 08:39:47;;;;;;;4.20;1.50;;;;;;;23.84;48.37;100001.64;104366;1261;60020;-60
2023/09/11 08:42:16;;;;;;;3.00;1.80;;;;;;;23.90;48.18;100001.95;104295;1276;72189;-61
2023/09/11 08:44:44;;;;;;;2.00;1.50;;;;;;;23.95;47.40;99997.05;104313;1256;72612;-60
2023/09/11 13:43:36;;;;;;;1.70;1.40;;;;;;;28.70;33.92;99730.13;101594;1291;601780;-60
2023/09/11 13:46:05;;;;;;;2.50;1.50;;;;;;;29.25;31.78;99723.58;103897;1270;59771;-60
2023/09/11 13:48:33;;;;;;;2.70;1.70;;;;;;;29.31;31.87;99726.75;103632;1271;60141;-60
2023/09/11 13:51:01;;;;;;;1.90;1.60;;;;;;;29.29;31.98;99728.42;103540;1266;72070;-62
2023/09/11 13:53:29;;;;;;;1.80;1.30;;;;;;;29.28;31.07;99725.70;103912;1266;68716;-60
2023/09/11 13:55:56;;;;;;;3.00;1.60;;;;;;;29.21;31.68;99726.73;103651;1270;71183;-60
2023/09/11 13:58:24;;;;;;;;;;;;;;;29.26;31.65;99727.39;103566;1269;435016;-59
2023/09/11 14:00:52;;;;;;;1.60;1.40;;;;;;;29.37;31.97;99728.17;104239;1258;59566;-62
2023/09/11 14:03:20;;;;;;;2.80;1.40;;;;;;;29.33;32.05;99727.31;104441;1259;71965;-60
2023/09/11 14:05:47;;;;;;;1.50;1.40;;;;;;;29.21;31.84;99723.48;104375;1258;69427;-60
2023/09/11 14:08:15;;;;;;;4.10;1.50;;;;;;;29.14;32.27;99724.83;105132;1257;72389;-60
2023/09/11 14:10:43;;;;;;;;;;;;;;;29.19;32.73;99725.50;105191;1260;59794;-60
2023/09/11 14:13:12;;;;;;;3.10;1.10;;;;;;;29.17;32.23;99722.16;104016;1264;59772;-60
2023/09/11 14:15:44;;;;;;;1.50;1.30;;;;;;;29.09;31.94;99722.92;104309;1260;73499;-61
2023/09/11 14:18:11;;;;;;;2.00;1.80;;;;;;;28.93;32.00;99722.66;104266;1257;69768;-60
2023/09/11 14:20:39;;;;;;;1.80;1.70;;;;;;;28.77;32.06;99721.31;104210;1276;72576;-60
2023/09/11 14:23:07;;;;;;;1.60;1.50;;;;;;;28.63;33.03;99723.81;104250;1261;60145;-60
2023/09/11 14:25:35;;;;;;;;;;;;;;;28.48;32.95;99719.08;104210;1258;59840;-60
2023/09/11 14:28:03;;;;;;;1.80;1.40;;;;;;;28.37;34.04;99720.33;104289;1278;73432;-60
2023/09/11 14:30:32;;;;;;;1.60;1.20;;;;;;;28.25;33.93;99718.55;104077;1261;69492;-60
2023/09/11 14:33:00;;;;;;;1.50;1.40;;;;;;;28.14;34.05;99721.75;104036;1258;73286;-60
2023/09/11 14:35:28;;;;;;;2.20;1.50;;;;;;;28.04;34.57;99721.30;104255;1260;59778;-60
2023/09/11 14:37:59;;;;;;;3.40;1.70;;;;;;;27.94;35.92;99718.81;105431;1260;62715;-61
2023/09/11 14:40:27;;;;;;;2.60;1.40;;;;;;;27.89;35.47;99720.10;104208;1260;72765;-60
2023/09/11 14:42:54;;;;;;;;;;;;;;;27.90;35.02;99718.52;104480;1263;70446;-62
2023/09/11 14:45:22;;;;;;;3.90;1.50;;;;;;;27.88;34.66;99719.85;104397;1261;72342;-60
2023/09/11 14:47:50;;;;;;;;;;;;;;;27.74;35.10;99718.16;104269;1260;60162;-60
2023/09/11 14:50:18;;;;;;;1.50;1.40;;;;;;;27.64;35.35;99721.54;104247;1257;59784;-60
2023/09/11 14:52:46;;;;;;;6.20;1.60;;;;;;;27.52;35.34;99719.06;104256;1258;73881;-61
2023/09/11 14:55:13;;;;;;;1.20;1.20;;;;;;;27.42;36.00;99723.40;104294;1260;68347;-60
2023/09/11 14:57:41;;;;;;;;;;;;;;;27.32;37.17;99725.98;104336;1262;72447;-62
2023/09/11 15:00:10;;;;;;;2.40;1.40;;;;;;;27.18;37.23;99727.09;104227;1260;60068;-62
2023/09/11 15:02:37;;;;;;;1.80;1.60;;;;;;;27.06;37.18;99724.11;104346;1258;60069;-60
2023/09/11 15:05:05;;;;;;;2.20;1.90;;;;;;;27.00;37.19;99722.14;104328;1270;73283;-60
2023/09/11 15:07:33;;;;;;;2.20;1.50;;;;;;;26.94;37.63;99725.60;104260;1263;68997;-60
2023/09/11 15:10:01;;;;;;;2.70;1.90;;;;;;;26.87;38.83;99723.45;104357;1264;73397;-60
2023/09/11 15:12:29;;;;;;;;;;;;;;;26.78;39.31;99722.17;104186;1258;60054;-61
2023/09/11 15:14:58;;;;;;;2.70;1.40;;;;;;;26.68;39.22;99722.37;104385;1261;60388;-60
2023/09/11 15:17:26;;;;;;;;;;;;;;;26.59;39.63;99722.58;104249;1257;73666;-60
2023/09/11 15:19:54;;;;;;;1.60;1.50;;;;;;;26.50;39.99;99726.27;104254;1260;70507;-60
2023/09/11 15:22:22;;;;;;;1.60;1.50;;;;;;;26.39;40.26;99729.85;104504;1260;72444;-60
2023/09/11 15:24:49;;;;;;;3.40;1.40;;;;;;;26.32;40.11;99733.45;104358;1260;59764;-60
2023/09/11 15:27:17;;;;;;;2.30;1.50;;;;;;;26.27;40.36;99730.91;104435;1257;59726;-60
2023/09/11 15:29:45;;;;;;;2.40;1.90;;;;;;;26.17;41.61;99726.65;104649;1258;72771;-60
2023/09/11 15:32:13;;;;;;;;;;;;;;;26.07;42.04;99728.41;104362;1263;69221;-60
2023/09/11 15:34:41;;;;;;;1.90;1.50;;;;;;;25.99;42.62;99730.70;104279;1269;73382;-60
2023/09/11 15:37:15;;;;;;;2.80;1.70;;;;;;;25.90;43.38;99736.45;104289;1259;59817;-60
2023/09/11 15:39:43;;;;;;;1.90;1.50;;;;;;;25.82;43.77;99734.38;104264;1259;59902;-61
2023/09/11 15:42:11;;;;;;;;;;;;;;;25.75;44.47;99735.31;104340;1260;72916;-61
2023/09/11 15:44:38;;;;;;;3.40;1.50;;;;;;;25.71;44.74;99734.52;104295;1277;69122;-61
2023/09/11 15:47:06;;;;;;;;;;;;;;;25.64;43.53;99736.61;104323;1260;72477;-62
2023/09/11 15:49:34;;;;;;;1.90;1.70;;;;;;;25.59;43.51;99735.74;104325;1260;60210;-62
2023/09/11 15:52:03;;;;;;;;;;;;;;;25.52;43.87;99739.52;104422;1259;59851;-61
2023/09/11 15:54:32;;;;;;;3.70;1.90;;;;;;;25.42;44.70;99740.98;104643;1260;73341;-61
2023/09/11 15:57:01;;;;;;;3.40;2.00;;;;;;;25.34;45.00;99740.11;104268;1267;69227;-61
2023/09/11 15:59:29;;;;;;;7.20;2.00;;;;;;;25.30;45.37;99737.16;104368;1259;72680;-61
2023/09/11 16:01:58;;;;;;;7.40;2.20;;;;;;;25.26;45.88;99738.45;104433;1261;59794;-62
2023/09/11 16:04:25;;;;;;;6.20;2.50;;;;;;;25.18;45.95;99732.02;104339;1259;59756;-62
2023/09/11 16:06:53;;;;;;;2.50;1.60;;;;;;;25.09;46.39;99735.00;104272;1260;72936;-62
2023/09/11 16:09:22;;;;;;;2.80;1.90;;;;;;;25.01;46.76;99729.67;104362;1263;69181;-62
2023/09/11 16:11:51;;;;;;;;;;;;;;;24.94;47.14;99732.34;104350;1260;72368;-61
2023/09/11 16:14:23;;;;;;;5.00;2.00;;;;;;;24.91;47.47;99728.23;104441;1259;60896;-60
2023/09/11 16:16:51;;;;;;;5.40;2.00;;;;;;;24.84;48.07;99726.17;104543;1255;59756;-60
2023/09/11 16:19:21;;;;;;;2.30;1.80;;;;;;;24.75;48.19;99729.63;104757;1259;73668;-60
2023/09/11 16:21:49;;;;;;;2.70;1.90;;;;;;;24.69;48.92;99728.98;104283;1276;69755;-59
2023/09/11 16:24:17;;;;;;;4.60;2.00;;;;;;;24.62;49.23;99723.91;104843;1260;75882;-60
2023/09/11 16:26:47;;;;;;;;;;;;;;;24.54;49.55;99722.08;104355;1275;59778;-61
2023/09/11 16:29:17;;;;;;;3.90;2.30;;;;;;;24.45;50.85;99722.52;104288;1260;60462;-60
2023/09/11 16:31:45;;;;;;;4.20;2.10;;;;;;;24.33;50.68;99721.08;104163;1256;73034;-60
2023/09/11 16:34:13;;;;;;;3.30;2.20;;;;;;;24.26;51.25;99721.94;104420;1260;69735;-60
2023/09/11 16:36:41;;;;;;;3.50;2.50;;;;;;;24.20;51.65;99721.08;104163;1261;72562;-60
2023/09/11 16:39:09;;;;;;;5.70;3.00;;;;;;;24.12;51.64;99718.87;104484;1257;59913;-59